createdAt,value
2022-10-20T00:01:19.555Z,100063.53
2022-10-20T00:03:47.354Z,100069.06
2022-10-20T00:06:21.308Z,100067.63
2022-10-20T00:08:48.925Z,100072.16
2022-10-20T00:11:19.579Z,100060.00
2022-10-20T00:13:49.294Z,100060.16
2022-10-20T00:16:16.694Z,100049.88
2022-10-20T00:18:44.630Z,100050.06
2022-10-20T00:21:19.629Z,100039.53
2022-10-20T00:23:47.086Z,100047.97
2022-10-20T00:26:16.995Z,100039.97
2022-10-20T00:28:45.319Z,100042.00
2022-10-20T00:31:13.022Z,100028.34
2022-10-20T00:33:40.200Z,100039.06
2022-10-20T00:36:11.424Z,100029.38
2022-10-20T00:38:38.368Z,100034.94
2022-10-20T00:41:06.074Z,100033.25
2022-10-20T00:43:55.487Z,100039.03
2022-10-20T00:46:41.828Z,100039.22
2022-10-20T00:49:20.421Z,100034.03
2022-10-20T00:51:48.269Z,100042.28
2022-10-20T00:54:22.495Z,100042.47
2022-10-20T00:56:51.246Z,100021.28
2022-10-20T00:59:22.938Z,100017.94
2022-10-20T01:01:50.240Z,100016.31
2022-10-20T01:04:18.585Z,100006.84
2022-10-20T01:06:45.732Z,100004.38
2022-10-20T01:09:13.033Z,99993.00
2022-10-20T01:12:21.827Z,99993.41
2022-10-20T01:15:20.315Z,99986.44
2022-10-20T01:18:14.321Z,99982.47
2022-10-20T01:21:14.317Z,99995.22
2022-10-20T01:24:17.796Z,100005.47
2022-10-20T01:27:16.083Z,100004.03
2022-10-20T01:30:05.581Z,100001.75
2022-10-20T01:32:57.011Z,99987.75
2022-10-20T01:35:44.389Z,99982.59
2022-10-20T01:38:36.505Z,99974.97
2022-10-20T01:41:23.197Z,99965.47
2022-10-20T01:43:51.373Z,99965.69
2022-10-20T01:46:21.656Z,99973.69
2022-10-20T01:48:50.091Z,99969.59
2022-10-20T01:51:17.131Z,99969.59
2022-10-20T01:53:44.148Z,99956.38
2022-10-20T01:56:26.710Z,99939.94
2022-10-20T01:59:32.946Z,99943.63
2022-10-20T02:02:41.770Z,99929.63
2022-10-20T02:05:45.638Z,99920.97
2022-10-20T02:08:49.352Z,99926.13
2022-10-20T02:11:55.009Z,99923.84
2022-10-20T02:14:23.405Z,99913.16
2022-10-20T02:16:57.873Z,99916.03
2022-10-20T02:19:32.181Z,99932.06
2022-10-20T02:22:00.142Z,99920.53
2022-10-20T02:24:33.994Z,99914.34
2022-10-20T02:27:08.194Z,99911.69
2022-10-20T02:29:43.162Z,99935.94
2022-10-20T02:32:12.433Z,99937.78
2022-10-20T02:34:42.384Z,99930.78
2022-10-20T02:37:09.898Z,99926.47
2022-10-20T02:39:36.876Z,99911.47
2022-10-20T02:42:03.846Z,99917.63
2022-10-20T02:44:30.852Z,99930.19
2022-10-20T02:46:57.780Z,99931.00
2022-10-20T02:49:25.199Z,99916.81
2022-10-20T02:51:52.235Z,99925.81
2022-10-20T02:54:19.345Z,99920.47
2022-10-20T02:56:46.583Z,99921.13
2022-10-20T02:59:16.821Z,99935.53
2022-10-20T03:01:44.462Z,99922.16
2022-10-20T03:04:12.076Z,99918.84
2022-10-20T03:06:40.618Z,99898.28
2022-10-20T03:09:07.647Z,99883.06
2022-10-20T03:11:34.681Z,99888.41
2022-10-20T03:14:01.696Z,99894.63
2022-10-20T03:16:28.666Z,99892.75
2022-10-20T03:18:59.924Z,99895.44
2022-10-20T03:21:30.397Z,99906.13
2022-10-20T03:23:57.337Z,99904.28
2022-10-20T03:26:24.327Z,99903.44
2022-10-20T03:28:51.407Z,99914.13
2022-10-20T03:31:18.478Z,99898.28
2022-10-20T03:33:45.399Z,99901.16
2022-10-20T03:36:12.427Z,99877.09
2022-10-20T03:38:43.083Z,99888.81
2022-10-20T03:41:10.990Z,99888.81
2022-10-20T03:43:41.708Z,99871.13
2022-10-20T03:46:11.558Z,99864.16
2022-10-20T03:48:39.871Z,99862.31
2022-10-20T03:51:09.428Z,99864.97
2022-10-20T03:53:36.362Z,99869.50
2022-10-20T03:56:14.327Z,99850.13
2022-10-20T03:58:41.262Z,99850.13
2022-10-20T04:01:13.197Z,99842.31
2022-10-20T04:03:40.156Z,99839.84
2022-10-20T04:06:07.167Z,99842.72
2022-10-20T04:08:34.183Z,99846.22
2022-10-20T04:11:01.149Z,99856.09
2022-10-20T04:13:28.096Z,99864.31
2022-10-20T04:15:55.126Z,99876.00
2022-10-20T04:18:22.102Z,99876.00
2022-10-20T04:20:49.317Z,99875.38
2022-10-20T04:23:16.273Z,99866.72
2022-10-20T04:25:48.484Z,99864.88
2022-10-20T04:28:18.193Z,99856.25
2022-10-20T04:30:45.923Z,99853.56
2022-10-20T04:33:13.860Z,99867.09
2022-10-20T04:35:41.353Z,99876.13
2022-10-20T04:38:08.864Z,99882.50
2022-10-20T04:40:35.882Z,99875.31
2022-10-20T04:43:02.932Z,99856.00
2022-10-20T04:45:29.943Z,99846.34
2022-10-20T04:47:56.878Z,99841.16
2022-10-20T04:50:23.834Z,99828.84
2022-10-20T04:53:07.834Z,99822.88
2022-10-20T04:55:35.986Z,99818.56
2022-10-20T04:58:03.080Z,99824.28
2022-10-20T05:00:30.032Z,99812.97
2022-10-20T05:02:57.038Z,99812.72
2022-10-20T05:05:24.044Z,99804.72
2022-10-20T05:07:51.020Z,99797.72
2022-10-20T05:10:19.307Z,99796.44
2022-10-20T05:12:46.225Z,99787.81
2022-10-20T05:15:13.181Z,99795.00
2022-10-20T05:17:40.126Z,99785.34
2022-10-20T05:20:07.621Z,99775.91
2022-10-20T05:22:34.821Z,99798.25
2022-10-20T05:25:24.445Z,99788.59
2022-10-20T05:27:48.915Z,99796.81
2022-10-20T05:30:15.930Z,99783.66
2022-10-20T05:32:42.872Z,99776.47
2022-10-20T05:35:09.898Z,99773.00
2022-10-20T05:37:36.843Z,99771.34
2022-10-20T05:40:06.523Z,99775.84
2022-10-20T05:42:33.834Z,99760.84
2022-10-20T05:45:01.025Z,99757.34
2022-10-20T05:47:28.000Z,99780.53
2022-10-20T05:49:54.925Z,99778.69
2022-10-20T05:52:22.215Z,99777.69
2022-10-20T05:54:49.158Z,99776.03
2022-10-20T05:57:16.081Z,99771.72
2022-10-20T05:59:42.982Z,99764.53
2022-10-20T06:02:12.010Z,99777.06
2022-10-20T06:04:39.039Z,99763.50
2022-10-20T06:07:06.226Z,99774.19
2022-10-20T06:09:33.287Z,99801.72
2022-10-20T06:12:00.321Z,99775.03
2022-10-20T06:14:27.385Z,99781.19
2022-10-20T06:16:55.606Z,99782.00
2022-10-20T06:19:23.980Z,99805.84
2022-10-20T06:21:51.965Z,99824.31
2022-10-20T06:24:19.662Z,99830.50
2022-10-20T06:26:46.707Z,99813.28
2022-10-20T06:29:17.326Z,99826.44
2022-10-20T06:31:48.105Z,99816.56
2022-10-20T06:34:21.603Z,99817.41
2022-10-20T06:36:49.752Z,99817.81
2022-10-20T06:39:22.854Z,99837.38
2022-10-20T06:41:54.576Z,99833.47
2022-10-20T06:44:24.396Z,99835.13
2022-10-20T06:46:55.145Z,99834.75
2022-10-20T06:49:23.459Z,99825.69
2022-10-20T06:51:50.752Z,99823.66
2022-10-20T06:54:18.032Z,99819.97
2022-10-20T06:56:45.021Z,99816.91
2022-10-20T06:59:12.075Z,99822.06
2022-10-20T07:01:39.780Z,99836.84
2022-10-20T07:04:11.566Z,99848.19
2022-10-20T07:06:42.099Z,99856.63
2022-10-20T07:09:14.345Z,99861.59
2022-10-20T07:11:42.221Z,99860.97
2022-10-20T07:14:13.540Z,99857.13
2022-10-20T07:16:40.729Z,99856.72
2022-10-20T07:19:07.798Z,99846.47
2022-10-20T07:21:39.150Z,99865.38
2022-10-20T07:24:09.708Z,99848.97
2022-10-20T07:26:40.191Z,99858.25
2022-10-20T07:29:07.305Z,99869.16
2022-10-20T07:31:46.053Z,99854.19
2022-10-20T07:34:25.219Z,99856.91
2022-10-20T07:36:54.829Z,99855.09
2022-10-20T07:39:21.849Z,99845.44
2022-10-20T07:41:48.909Z,99833.97
2022-10-20T07:44:16.709Z,99826.34
2022-10-20T07:46:44.268Z,99829.47
2022-10-20T07:51:58.665Z,99828.47
2022-10-20T07:54:25.763Z,99820.88
2022-10-20T07:56:53.020Z,99823.75
2022-10-20T07:59:20.137Z,99823.75
2022-10-20T08:01:47.471Z,99818.66
2022-10-20T08:04:14.470Z,99814.38
2022-10-20T08:06:41.472Z,99806.56
2022-10-20T08:09:08.655Z,99790.91
2022-10-20T08:11:36.219Z,99796.69
2022-10-20T08:14:03.666Z,99798.94
2022-10-20T08:16:33.728Z,99800.19
2022-10-20T08:19:16.350Z,99812.94
2022-10-20T08:21:43.445Z,99830.03
2022-10-20T08:24:10.723Z,99843.44
2022-10-20T08:26:37.696Z,99846.94
2022-10-20T08:29:04.731Z,99835.03
2022-10-20T08:31:31.659Z,99831.09
2022-10-20T08:33:59.692Z,99827.59
2022-10-20T08:36:28.184Z,99824.69
2022-10-20T08:38:56.317Z,99830.03
2022-10-20T08:41:38.749Z,99834.38
2022-10-20T08:44:27.869Z,99835.81
2022-10-20T08:46:55.173Z,99836.41
2022-10-20T08:49:27.108Z,99830.81
2022-10-20T08:51:54.313Z,99842.75
2022-10-20T08:54:21.628Z,99843.16
2022-10-20T08:56:48.803Z,99842.94
2022-10-20T08:59:39.790Z,99860.44
2022-10-20T09:02:17.282Z,99855.47
2022-10-20T09:04:58.378Z,99849.63
2022-10-20T09:07:35.042Z,99851.84
2022-10-20T09:10:35.168Z,99843.34
2022-10-20T09:13:17.574Z,99841.69
2022-10-20T09:15:44.657Z,99844.50
2022-10-20T09:18:13.945Z,99833.13
2022-10-20T09:21:07.887Z,99841.81
2022-10-20T09:23:45.093Z,99861.84
2022-10-20T09:26:30.941Z,99867.41
2022-10-20T09:29:15.191Z,99880.84
2022-10-20T09:31:54.320Z,99886.81
2022-10-20T09:34:27.510Z,99889.44
2022-10-20T09:37:09.378Z,99890.63
2022-10-20T09:39:58.271Z,99884.78
2022-10-20T09:42:35.850Z,99875.81
2022-10-20T09:45:28.884Z,99867.06
2022-10-20T09:48:31.773Z,99870.91
2022-10-20T09:51:00.247Z,99873.34
2022-10-20T09:53:46.777Z,99879.09
2022-10-20T09:56:42.340Z,99866.63
2022-10-20T09:59:32.912Z,99858.16
2022-10-20T10:02:29.233Z,99864.59
2022-10-20T10:05:19.813Z,99861.63
2022-10-20T10:07:59.585Z,99858.34
2022-10-20T10:10:31.970Z,99859.56
2022-10-20T10:13:01.107Z,99851.72
2022-10-20T10:15:31.421Z,99845.47
2022-10-20T10:17:59.709Z,99848.78
2022-10-20T10:20:37.987Z,99826.47
2022-10-20T10:23:28.825Z,99821.91
2022-10-20T10:25:59.269Z,99830.13
2022-10-20T10:28:38.423Z,99829.28
2022-10-20T10:31:26.298Z,99824.75
2022-10-20T10:34:12.473Z,99835.88
2022-10-20T10:36:39.600Z,99836.03
2022-10-20T10:39:14.110Z,99825.06
2022-10-20T10:42:16.298Z,99825.28
2022-10-20T10:45:19.490Z,99796.94
2022-10-20T10:48:35.732Z,99811.00
2022-10-20T10:51:17.692Z,99809.97
2022-10-20T10:54:10.832Z,99797.09
2022-10-20T10:56:50.558Z,99781.78
2022-10-20T10:59:29.297Z,99804.13
2022-10-20T11:02:26.571Z,99799.78
2022-10-20T11:05:46.584Z,99797.50
2022-10-20T11:08:38.370Z,99812.59
2022-10-20T11:11:46.597Z,99815.50
2022-10-20T11:14:16.099Z,99806.38
2022-10-20T11:17:29.947Z,99802.25
2022-10-20T11:20:21.667Z,99782.59
2022-10-20T11:23:18.261Z,99772.66
2022-10-20T11:26:18.453Z,99760.50
2022-10-20T11:28:51.999Z,99760.97
2022-10-20T11:31:41.933Z,99761.16
2022-10-20T11:34:30.694Z,99755.44
2022-10-20T11:37:17.594Z,99740.78
2022-10-20T11:40:08.809Z,99749.91
2022-10-20T11:42:57.356Z,99749.16
2022-10-20T11:45:43.038Z,99764.69
2022-10-20T11:48:37.098Z,99766.16
2022-10-20T11:51:14.760Z,99764.53
2022-10-20T11:54:24.528Z,99782.75
2022-10-20T11:57:02.435Z,99787.50
2022-10-20T12:03:18.719Z,99803.06
2022-10-20T12:06:12.379Z,99799.31
2022-10-20T12:09:16.740Z,99803.06
2022-10-20T12:12:06.055Z,99793.94
2022-10-20T12:14:44.121Z,99797.44
2022-10-20T12:17:26.278Z,99785.88
2022-10-20T12:20:22.171Z,99780.28
2022-10-20T12:22:52.330Z,99789.78
2022-10-20T12:25:38.222Z,99780.28
2022-10-20T12:28:20.427Z,99781.72
2022-10-20T12:30:54.417Z,99786.28
2022-10-20T12:33:36.815Z,99794.75
2022-10-20T12:36:17.564Z,99790.19
2022-10-20T12:38:52.944Z,99786.09
2022-10-20T12:41:30.338Z,99774.53
2022-10-20T12:44:15.316Z,99775.59
2022-10-20T12:46:53.495Z,99775.78
2022-10-20T12:49:41.988Z,99762.56
2022-10-20T12:52:21.001Z,99750.19
2022-10-20T12:54:58.944Z,99740.25
2022-10-20T12:57:41.540Z,99733.22
2022-10-20T13:00:28.644Z,99743.97
2022-10-20T13:03:00.173Z,99733.22
2022-10-20T13:05:47.990Z,99731.59
2022-10-20T13:08:20.995Z,99733.22
2022-10-20T13:10:49.287Z,99731.13
2022-10-20T13:13:19.161Z,99708.81
2022-10-20T13:15:53.882Z,99692.69
2022-10-20T13:18:38.469Z,99682.75
2022-10-20T13:21:32.979Z,99673.88
2022-10-20T13:24:13.498Z,99659.38
2022-10-20T13:26:43.355Z,99687.94
2022-10-20T13:29:25.119Z,99691.06
2022-10-20T13:32:13.324Z,99699.94
2022-10-20T13:34:52.708Z,99698.06
2022-10-20T13:37:48.253Z,99699.13
2022-10-20T13:40:50.777Z,99712.31
2022-10-20T13:43:57.869Z,99728.69
2022-10-20T13:46:41.377Z,99739.44
2022-10-20T13:49:29.917Z,99737.78
2022-10-20T13:52:04.287Z,99733.22
2022-10-20T13:54:35.829Z,99711.72
2022-10-20T13:57:03.581Z,99728.09
2022-10-20T13:59:31.611Z,99724.94
2022-10-20T14:02:20.754Z,99730.31
2022-10-20T14:04:47.686Z,99743.53
2022-10-20T14:07:15.973Z,99744.38
2022-10-20T14:09:46.648Z,99745.19
2022-10-20T14:12:25.490Z,99752.22
2022-10-20T14:15:01.483Z,99750.13
2022-10-20T14:17:29.231Z,99747.19
2022-10-20T14:20:33.851Z,99733.75
2022-10-20T14:23:03.339Z,99724.44
2022-10-20T14:25:32.302Z,99716.38
2022-10-20T14:28:02.781Z,99727.94
2022-10-20T14:30:33.382Z,99724.44
2022-10-20T14:33:02.696Z,99721.53
2022-10-20T14:35:45.064Z,99711.81
2022-10-20T14:38:37.813Z,99713.06
2022-10-20T14:41:08.278Z,99709.56
2022-10-20T14:43:46.131Z,99702.13
2022-10-20T14:46:33.678Z,99688.88
2022-10-20T14:49:01.702Z,99686.00
2022-10-20T14:51:29.344Z,99682.25
2022-10-20T14:54:14.952Z,99682.25
2022-10-20T14:56:50.329Z,99680.16
2022-10-20T14:59:21.805Z,99673.72
2022-10-20T15:02:12.340Z,99664.84
2022-10-20T15:04:43.521Z,99659.47
2022-10-20T15:07:23.571Z,99654.09
2022-10-20T15:10:04.961Z,99650.56
2022-10-20T15:12:36.406Z,99638.78
2022-10-20T15:15:20.396Z,99639.81
2022-10-20T15:18:15.708Z,99641.69
2022-10-20T15:20:45.261Z,99632.56
2022-10-20T15:23:28.873Z,99634.69
2022-10-20T15:26:12.747Z,99639.25
2022-10-20T15:28:50.601Z,99644.38
2022-10-20T15:31:28.250Z,99644.63
2022-10-20T15:33:58.035Z,99645.44
2022-10-20T15:36:40.245Z,99642.75
2022-10-20T15:39:09.276Z,99633.88
2022-10-20T15:41:36.954Z,99632.22
2022-10-20T15:44:24.361Z,99640.50
2022-10-20T15:46:55.661Z,99636.97
2022-10-20T15:49:23.755Z,99645.06
2022-10-20T15:51:50.858Z,99647.75
2022-10-20T15:54:21.302Z,99645.06
2022-10-20T15:56:48.541Z,99646.91
2022-10-20T15:59:15.444Z,99660.34
2022-10-20T16:01:42.407Z,99665.97
2022-10-20T16:04:19.252Z,99672.38
2022-10-20T16:06:47.030Z,99670.53
2022-10-20T16:09:16.040Z,99683.16
2022-10-20T16:11:44.112Z,99685.84
2022-10-20T16:14:12.085Z,99671.56
2022-10-20T16:16:39.393Z,99676.13
2022-10-20T16:19:06.310Z,99673.22
2022-10-20T16:21:34.270Z,99654.63
2022-10-20T16:24:01.527Z,99644.94
2022-10-20T16:26:28.663Z,99637.28
2022-10-20T16:28:55.779Z,99638.59
2022-10-20T16:31:22.888Z,99636.13
2022-10-20T16:33:49.822Z,99643.56
2022-10-20T16:36:18.225Z,99654.78
2022-10-20T16:38:45.256Z,99668.66
2022-10-20T16:41:14.916Z,99675.50
2022-10-20T16:43:45.615Z,99673.25
2022-10-20T16:46:14.411Z,99683.25
2022-10-20T16:48:42.708Z,99659.72
2022-10-20T16:51:12.976Z,99659.78
2022-10-20T16:53:40.023Z,99658.59
2022-10-20T16:56:08.135Z,99658.44
2022-10-20T16:58:35.460Z,99663.22
2022-10-20T17:01:06.307Z,99648.59
2022-10-20T17:03:33.402Z,99650.09
2022-10-20T17:06:06.592Z,99657.53
2022-10-20T17:08:35.946Z,99649.34
2022-10-20T17:11:16.620Z,99630.97
2022-10-20T17:13:43.858Z,99623.38
2022-10-20T17:16:35.101Z,99642.56
2022-10-20T17:19:03.225Z,99653.78
2022-10-20T17:21:32.271Z,99652.13
2022-10-20T17:23:59.906Z,99646.13
2022-10-20T17:26:32.571Z,99652.56
2022-10-20T17:29:01.609Z,99648.47
2022-10-20T17:31:29.818Z,99648.06
2022-10-20T17:33:59.135Z,99653.88
2022-10-20T17:36:26.992Z,99657.59
2022-10-20T17:39:03.271Z,99665.84
2022-10-20T17:41:31.704Z,99666.31
2022-10-20T17:44:04.596Z,99689.00
2022-10-20T17:46:33.299Z,99701.84
2022-10-20T17:49:03.267Z,99700.19
2022-10-20T17:51:33.703Z,99699.59
2022-10-20T17:54:03.467Z,99680.41
2022-10-20T17:56:35.327Z,99675.28
2022-10-20T17:59:05.286Z,99682.91
2022-10-20T18:01:36.614Z,99694.69
2022-10-20T18:04:14.559Z,99671.59
2022-10-20T18:06:43.942Z,99657.00
2022-10-20T18:09:17.903Z,99637.59
2022-10-20T18:11:51.246Z,99634.31
2022-10-20T18:14:18.907Z,99647.94
2022-10-20T18:16:46.690Z,99639.28
2022-10-20T18:19:17.568Z,99655.34
2022-10-20T18:21:45.414Z,99650.44
2022-10-20T18:24:14.929Z,99629.81
2022-10-20T18:26:42.835Z,99631.66
2022-10-20T18:29:11.052Z,99638.91
2022-10-20T18:31:41.309Z,99614.97
2022-10-20T18:34:17.066Z,99621.34
2022-10-20T18:36:45.902Z,99611.47
2022-10-20T18:39:14.089Z,99600.94
2022-10-20T18:41:43.077Z,99595.81
2022-10-20T18:44:18.869Z,99600.34
2022-10-20T18:46:49.343Z,99598.13
2022-10-20T18:49:21.548Z,99599.75
2022-10-20T18:51:49.823Z,99611.31
2022-10-20T18:54:18.260Z,99609.84
2022-10-20T18:56:45.696Z,99594.38
2022-10-20T18:59:16.158Z,99580.16
2022-10-20T19:01:43.782Z,99586.34
2022-10-20T19:04:12.256Z,99568.41
2022-10-20T19:06:45.554Z,99565.50
2022-10-20T19:09:16.930Z,99552.31
2022-10-20T19:11:44.977Z,99568.16
2022-10-20T19:14:13.434Z,99579.94
2022-10-20T19:16:45.701Z,99583.22
2022-10-20T19:19:13.363Z,99581.75
2022-10-20T19:21:40.478Z,99576.97
2022-10-20T19:24:22.111Z,99592.66
2022-10-20T19:27:24.604Z,99581.94
2022-10-20T19:29:44.779Z,99583.56
2022-10-20T19:32:12.079Z,99580.66
2022-10-20T19:34:40.829Z,99580.44
2022-10-20T19:37:09.082Z,99555.25
2022-10-20T19:39:39.558Z,99590.94
2022-10-20T19:42:10.119Z,99587.59
2022-10-20T19:44:37.909Z,99582.25
2022-10-20T19:47:05.632Z,99578.97
2022-10-20T19:49:32.780Z,99589.69
2022-10-20T19:52:00.233Z,99592.38
2022-10-20T19:54:27.466Z,99616.06
2022-10-20T19:56:54.424Z,99617.50
2022-10-20T19:59:21.501Z,99614.16
2022-10-20T20:01:49.882Z,99618.06
2022-10-20T20:04:17.004Z,99628.97
2022-10-20T20:06:44.094Z,99615.25
2022-10-20T20:09:15.322Z,99618.13
2022-10-20T20:11:43.243Z,99610.66
2022-10-20T20:14:15.708Z,99605.28
2022-10-20T20:19:12.241Z,99592.91
2022-10-20T20:21:39.436Z,99599.31
2022-10-20T20:24:06.791Z,99597.66
2022-10-20T20:26:36.864Z,99591.47
2022-10-20T20:29:05.074Z,99595.19
2022-10-20T20:31:33.169Z,99589.00
2022-10-20T20:34:00.128Z,99590.28
2022-10-20T20:36:28.181Z,99592.97
2022-10-20T20:38:59.267Z,99579.78
2022-10-20T20:41:28.554Z,99581.63
2022-10-20T20:43:55.884Z,99584.53
2022-10-20T20:46:26.770Z,99602.72
2022-10-20T20:48:54.139Z,99588.72
2022-10-20T20:51:21.329Z,99579.63
2022-10-20T20:53:48.346Z,99582.72
2022-10-20T20:56:19.621Z,99583.53
2022-10-20T20:58:49.009Z,99596.97
2022-10-20T21:01:23.383Z,99599.44
2022-10-20T21:03:59.222Z,99595.72
2022-10-20T21:07:00.137Z,99613.44
2022-10-20T21:09:14.473Z,99621.06
2022-10-20T21:11:43.026Z,99604.53
2022-10-20T21:14:10.003Z,99592.28
2022-10-20T21:16:37.859Z,99596.19
2022-10-20T21:19:12.002Z,99601.13
2022-10-20T21:21:50.582Z,99606.03
2022-10-20T21:24:18.558Z,99574.41
2022-10-20T21:26:45.580Z,99572.34
2022-10-20T21:29:12.577Z,99567.00
2022-10-20T21:31:40.473Z,99578.31
2022-10-20T21:34:07.485Z,99558.69
2022-10-20T21:36:36.075Z,99549.59
2022-10-20T21:39:06.987Z,99552.06
2022-10-20T21:41:35.621Z,99546.47
2022-10-20T21:44:05.787Z,99545.22
2022-10-20T21:46:44.905Z,99550.59
2022-10-20T21:49:15.972Z,99550.59
2022-10-20T21:51:48.886Z,99547.31
2022-10-20T21:54:25.788Z,99559.06
2022-10-20T21:56:54.037Z,99545.88
2022-10-20T21:59:30.536Z,99527.91
2022-10-20T22:02:00.829Z,99514.03
2022-10-20T22:04:30.024Z,99523.88
2022-10-20T22:06:59.184Z,99522.38
2022-10-20T22:09:26.339Z,99504.94
2022-10-20T22:11:55.911Z,99514.16
2022-10-20T22:14:23.375Z,99501.69
2022-10-20T22:16:50.631Z,99518.19
2022-10-20T22:19:22.119Z,99514.91
2022-10-20T22:21:51.589Z,99525.88
2022-10-20T22:24:20.384Z,99517.44
2022-10-20T22:26:50.727Z,99505.06
2022-10-20T22:29:19.158Z,99502.97
2022-10-20T22:31:46.535Z,99514.31
2022-10-20T22:34:14.212Z,99539.69
2022-10-20T22:36:41.398Z,99541.09
2022-10-20T22:39:08.942Z,99522.28
2022-10-20T22:41:36.490Z,99512.94
2022-10-20T22:44:03.808Z,99504.44
2022-10-20T22:46:30.819Z,99501.53
2022-10-20T22:51:25.849Z,99493.09
2022-10-20T22:53:52.788Z,99489.22
2022-10-20T22:56:22.322Z,99485.34
2022-10-20T22:58:51.901Z,99482.06
2022-10-20T23:01:21.844Z,99478.34
2022-10-20T23:03:49.270Z,99469.94
2022-10-20T23:06:21.068Z,99491.19
2022-10-20T23:08:51.794Z,99502.97
2022-10-20T23:11:19.892Z,99505.06
2022-10-20T23:13:47.315Z,99502.59
2022-10-20T23:16:15.506Z,99485.91
2022-10-20T23:18:42.692Z,99505.13
2022-10-20T23:21:09.908Z,99513.41
2022-10-20T23:23:38.087Z,99517.16
2022-10-20T23:26:06.815Z,99511.78
2022-10-20T23:28:35.275Z,99520.91
2022-10-20T23:31:15.172Z,99535.97
2022-10-20T23:33:44.793Z,99516.34
2022-10-20T23:36:13.586Z,99510.16
2022-10-20T23:38:41.882Z,99513.41
2022-10-20T23:41:09.697Z,99524.41
2022-10-20T23:46:09.033Z,99524.16
2022-10-20T23:48:36.205Z,99518.34
2022-10-20T23:51:03.305Z,99518.94
2022-10-20T23:53:30.803Z,99529.47
2022-10-20T23:55:57.729Z,99533.53
2022-10-20T23:58:24.961Z,99526.09
